Time;durP1;ratioP1;P1;durP2;ratioP2;P2;SDS_P1;SDS_P2;PMS_P1;PMS_P2;Temp;Humidity;BMP_temperature;BMP_pressure;BME280_temperature;BME280_humidity;BME280_pressure;Samples;Min_cycle;Max_cycle;Signal;HPM_P1;HPM_P2
2022/12/14 08:16:49;;;;;;;23.77;14.40;;;-2.80;98.50;;;;;;3018326;23;20555;-76
2022/12/14 08:19:16;;;;;;;18.08;15.90;;;-2.80;98.00;;;;;;5011769;28;20079;-76
2022/12/14 08:21:42;;;;;;;15.75;14.05;;;-2.70;97.80;;;;;;5012062;28;20029;-76
2022/12/14 08:24:13;;;;;;;24.92;15.57;;;-2.60;97.60;;;;;;5014521;28;20083;-75
2022/12/14 08:26:39;;;;;;;23.88;18.08;;;-3.00;98.30;;;;;;5013013;28;20022;-75
2022/12/14 08:29:05;;;;;;;17.83;15.18;;;-3.30;98.90;;;;;;5015026;28;20077;-78
2022/12/14 08:31:31;;;;;;;20.77;16.30;;;-3.00;99.10;;;;;;5009973;28;20084;-76
2022/12/14 08:33:58;;;;;;;18.83;16.85;;;-3.00;98.70;;;;;;5014921;28;20032;-77
2022/12/14 08:36:26;;;;;;;17.52;14.13;;;-2.90;98.10;;;;;;5016516;28;20045;-76
2022/12/14 08:38:54;;;;;;;19.67;15.52;;;-2.80;97.60;;;;;;4985298;28;20033;-76
2022/12/14 08:41:20;;;;;;;42.60;15.73;;;-2.70;97.40;;;;;;5029272;28;20396;-76
2022/12/14 08:43:49;;;;;;;19.55;15.93;;;-2.70;97.10;;;;;;5012277;28;20040;-75
2022/12/14 08:46:16;;;;;;;11.93;10.63;;;-2.70;97.60;;;;;;5021477;28;20025;-76
2022/12/14 08:48:42;;;;;;;23.42;15.75;;;-2.90;97.50;;;;;;5011753;28;20033;-77
2022/12/14 08:51:08;;;;;;;17.58;15.05;;;-2.80;98.00;;;;;;5028635;28;20419;-78
2022/12/14 08:53:36;;;;;;;24.00;18.02;;;-2.90;98.10;;;;;;5013991;28;20645;-77
2022/12/14 08:56:07;;;;;;;22.85;16.33;;;-2.90;97.90;;;;;;5006718;28;20031;-76
2022/12/14 08:58:33;;;;;;;;;;;-2.80;97.50;;;;;;5019094;28;20026;-76
2022/12/14 09:01:20;;;;;;;19.25;15.32;;;-2.60;97.70;;;;;;5009025;28;20015;-77
2022/12/14 09:03:46;;;;;;;16.83;13.30;;;-2.60;97.80;;;;;;5017750;28;20040;-75
2022/12/14 09:06:15;;;;;;;20.02;16.23;;;-2.40;97.20;;;;;;5011242;28;20033;-76
2022/12/14 09:08:41;;;;;;;20.75;15.65;;;-2.20;97.40;;;;;;5020798;28;20052;-75
2022/12/14 09:11:13;;;;;;;13.73;11.23;;;-2.30;97.40;;;;;;5015771;28;20105;-75
2022/12/14 09:13:40;;;;;;;13.77;11.05;;;-2.40;97.10;;;;;;5013114;28;20158;-76
2022/12/14 09:16:18;;;;;;;24.02;16.02;;;-2.50;97.70;;;;;;4999957;28;20500;-77
2022/12/14 09:18:45;;;;;;;25.45;17.83;;;-2.50;98.30;;;;;;5009912;28;20025;-76
2022/12/14 09:21:11;;;;;;;26.05;17.58;;;-2.40;98.30;;;;;;5019687;28;20083;-76
2022/12/14 09:23:38;;;;;;;19.20;16.48;;;-2.30;97.70;;;;;;5009220;28;20044;-76
2022/12/14 09:26:12;;;;;;;21.23;18.05;;;-2.40;97.90;;;;;;5014130;28;20026;-77
2022/12/14 09:28:40;;;;;;;24.45;17.38;;;-2.40;98.30;;;;;;5008768;28;20030;-76
2022/12/14 09:31:12;;;;;;;23.73;16.13;;;-2.60;98.60;;;;;;5016546;28;20041;-76
2022/12/14 09:33:38;;;;;;;24.30;17.02;;;-2.40;99.40;;;;;;5016607;28;20034;-76
2022/12/14 09:36:11;;;;;;;29.30;17.45;;;-2.20;99.50;;;;;;5014415;28;20025;-76
2022/12/14 09:38:38;;;;;;;28.40;16.67;;;-1.90;99.60;;;;;;5011202;28;20042;-76
2022/12/14 09:41:29;;;;;;;17.83;15.93;;;-1.90;98.80;;;;;;5012388;28;20037;-76
2022/12/14 09:44:16;;;;;;;20.63;15.70;;;-1.90;98.80;;;;;;5009320;28;20048;-76
2022/12/14 09:47:06;;;;;;;25.65;17.70;;;-1.70;99.20;;;;;;5013234;28;20025;-76
2022/12/14 09:49:48;;;;;;;26.75;16.35;;;-1.50;98.50;;;;;;5015353;28;20037;-76
2022/12/14 09:52:34;;;;;;;24.45;16.33;;;-1.30;98.40;;;;;;5013147;28;20041;-76
2022/12/14 09:55:04;;;;;;;24.85;17.25;;;-1.60;97.20;;;;;;5022970;28;20053;-74
2022/12/14 09:57:38;;;;;;;19.67;16.98;;;-1.60;97.90;;;;;;5018944;28;20042;-75
2022/12/14 10:00:12;;;;;;;26.52;18.10;;;-1.60;98.00;;;;;;5011589;28;20112;-75
2022/12/14 10:02:56;;;;;;;24.30;18.25;;;-1.60;98.10;;;;;;5014620;28;20030;-75
2022/12/14 10:05:50;;;;;;;22.38;16.02;;;-1.60;98.60;;;;;;5017483;28;20532;-75
2022/12/14 10:08:28;;;;;;;25.42;18.00;;;-1.30;97.60;;;;;;5017886;28;20026;-74
2022/12/14 10:11:10;;;;;;;21.02;17.02;;;-1.20;97.90;;;;;;5031122;28;20029;-75
2022/12/14 10:13:44;;;;;;;20.88;17.02;;;-0.90;97.50;;;;;;5015687;28;20065;-75
2022/12/14 10:16:21;;;;;;;17.27;15.50;;;-0.90;96.80;;;;;;5026212;28;20057;-75
2022/12/14 10:19:25;;;;;;;26.65;18.80;;;-0.80;96.70;;;;;;5017427;28;20064;-75
2022/12/14 10:22:11;;;;;;;28.42;18.10;;;-1.30;96.80;;;;;;5013751;28;20036;-75
2022/12/14 10:24:40;;;;;;;22.33;18.00;;;-1.40;97.90;;;;;;5022699;28;20030;-76
2022/12/14 10:27:07;;;;;;;23.67;17.80;;;-1.20;97.60;;;;;;5028381;28;20049;-74
2022/12/14 10:29:40;;;;;;;23.88;15.75;;;-1.20;97.10;;;;;;5021350;28;20038;-77
2022/12/14 10:32:14;;;;;;;19.52;16.45;;;-0.90;97.10;;;;;;5016252;28;20121;-77
2022/12/14 10:34:42;;;;;;;27.15;18.05;;;-0.70;96.40;;;;;;5019978;28;20070;-75
2022/12/14 10:37:28;;;;;;;25.58;17.33;;;-0.70;96.20;;;;;;5020646;28;20022;-75
2022/12/14 10:40:00;;;;;;;26.38;16.98;;;-0.80;96.40;;;;;;5015865;28;20033;-75
2022/12/14 10:42:25;;;;;;;21.02;16.00;;;-1.20;96.20;;;;;;5015794;28;20021;-75
2022/12/14 10:44:57;;;;;;;24.40;16.40;;;-1.30;97.00;;;;;;5013362;28;20506;-75
2022/12/14 10:47:34;;;;;;;25.08;16.73;;;-1.30;97.60;;;;;;5003515;28;20026;-75
2022/12/14 10:50:40;;;;;;;24.10;17.58;;;-1.10;99.20;;;;;;5007771;28;20483;-74
2022/12/14 10:53:16;;;;;;;22.17;17.90;;;-1.00;99.30;;;;;;4992222;28;20038;-75
2022/12/14 10:55:43;;;;;;;20.27;17.05;;;-0.70;99.90;;;;;;5014047;28;20041;-76
2022/12/14 10:58:12;;;;;;;25.00;17.98;;;-0.50;98.00;;;;;;5019020;28;20092;-76
2022/12/14 11:00:38;;;;;;;28.30;18.27;;;-0.60;98.90;;;;;;5010606;28;20042;-75
2022/12/14 11:03:10;;;;;;;21.35;18.50;;;-0.50;98.90;;;;;;5007547;28;20092;-72
2022/12/14 11:06:01;;;;;;;26.90;18.50;;;-0.80;99.10;;;;;;5008311;28;20044;-73
2022/12/14 11:08:37;;;;;;;23.33;18.23;;;-0.90;99.20;;;;;;5011373;28;20492;-73
2022/12/14 11:11:23;;;;;;;23.15;17.92;;;-0.80;99.20;;;;;;5022309;28;20691;-73
2022/12/14 11:14:05;;;;;;;21.27;16.60;;;-0.50;98.90;;;;;;5009307;28;20154;-72
2022/12/14 11:16:38;;;;;;;19.95;17.85;;;-0.50;99.00;;;;;;5020293;28;20439;-72
2022/12/14 11:19:13;;;;;;;24.30;16.65;;;-0.50;99.20;;;;;;5013288;28;20090;-76
2022/12/14 11:21:39;;;;;;;21.08;17.60;;;-0.40;99.40;;;;;;5015334;28;20045;-76
2022/12/14 11:24:05;;;;;;;24.85;17.73;;;-0.50;99.30;;;;;;5019303;28;20026;-76
2022/12/14 11:26:38;;;;;;;26.55;16.58;;;-0.60;99.70;;;;;;5015440;28;20025;-76
2022/12/14 11:29:14;;;;;;;27.08;18.42;;;-0.60;99.90;;;;;;5030761;28;20034;-74
2022/12/14 11:31:45;;;;;;;21.08;17.38;;;-0.60;99.90;;;;;;5015037;28;20404;-73
2022/12/14 11:34:36;;;;;;;22.83;16.95;;;-0.50;99.90;;;;;;5018714;28;20076;-73
2022/12/14 11:37:26;;;;;;;23.50;16.50;;;-0.40;99.90;;;;;;5012337;28;20030;-74
2022/12/14 11:39:57;;;;;;;20.17;17.20;;;-0.50;99.90;;;;;;5018181;28;20033;-74
2022/12/14 11:42:24;;;;;;;20.85;17.83;;;-0.40;99.90;;;;;;5011451;28;20034;-74
2022/12/14 11:44:52;;;;;;;26.45;17.73;;;-0.40;99.90;;;;;;5018479;28;20497;-74
2022/12/14 11:47:20;;;;;;;26.05;17.95;;;-0.40;99.90;;;;;;5029849;28;20546;-76
2022/12/14 11:49:55;;;;;;;26.00;18.52;;;-0.20;99.90;;;;;;5007514;28;20033;-76
2022/12/14 11:52:36;;;;;;;22.70;18.10;;;-0.10;99.90;;;;;;5004196;28;20080;-76
2022/12/14 11:55:18;;;;;;;40.63;19.60;;;-0.20;99.90;;;;;;5009772;28;20021;-74
2022/12/14 11:57:56;;;;;;;25.88;21.48;;;-0.30;99.90;;;;;;5012682;28;20036;-76
2022/12/14 12:00:24;;;;;;;33.85;18.35;;;-0.40;99.90;;;;;;5006768;28;20030;-76
2022/12/14 12:03:07;;;;;;;53.88;49.35;;;-0.30;99.90;;;;;;5019245;28;20017;-76
2022/12/14 12:05:38;;;;;;;65.70;60.05;;;-0.40;99.90;;;;;;5011209;28;20068;-76
2022/12/14 12:08:06;;;;;;;24.50;17.15;;;-0.70;99.90;;;;;;5015000;28;20075;-75
2022/12/14 12:10:45;;;;;;;23.13;17.95;;;-0.50;99.90;;;;;;5016604;28;20038;-71
2022/12/14 12:13:23;;;;;;;39.95;29.55;;;-0.50;99.90;;;;;;5011145;28;20030;-75
2022/12/14 12:15:52;;;;;;;20.60;17.50;;;-0.60;99.90;;;;;;5012300;28;20030;-74
2022/12/14 12:18:54;;;;;;;26.48;19.50;;;-0.50;99.90;;;;;;5025246;28;20041;-79
2022/12/14 12:21:34;;;;;;;21.83;16.20;;;-0.50;99.90;;;;;;5010281;28;20125;-77
2022/12/14 12:24:08;;;;;;;27.60;25.08;;;-0.70;99.90;;;;;;5011590;28;20055;-77
2022/12/14 12:26:42;;;;;;;22.63;20.48;;;-0.80;99.90;;;;;;5017432;28;20052;-78
2022/12/14 12:29:29;;;;;;;26.77;19.40;;;-0.80;99.90;;;;;;5009242;28;20049;-75
2022/12/14 12:32:20;;;;;;;21.98;18.98;;;-0.60;99.90;;;;;;5017059;28;20026;-75
2022/12/14 12:34:57;;;;;;;26.50;19.85;;;-0.60;99.90;;;;;;5014211;28;20173;-73
2022/12/14 12:37:33;;;;;;;20.95;18.75;;;-0.60;99.90;;;;;;5012510;28;20379;-76
2022/12/14 12:40:25;;;;;;;25.77;17.35;;;-0.60;99.90;;;;;;5013026;28;20084;-74
2022/12/14 12:43:13;;;;;;;35.75;24.42;;;-0.60;99.90;;;;;;5017365;28;20047;-77
2022/12/14 12:45:47;;;;;;;26.65;20.75;;;-0.70;99.90;;;;;;5026916;28;20792;-74
2022/12/14 12:48:25;;;;;;;28.25;21.92;;;-0.60;99.90;;;;;;5003990;28;20040;-82
2022/12/14 12:50:56;;;;;;;30.75;22.00;;;-0.50;99.90;;;;;;5018370;28;20423;-79
2022/12/14 12:53:33;;;;;;;23.27;20.27;;;-0.60;99.90;;;;;;5013758;28;20080;-80
2022/12/14 12:56:11;;;;;;;24.85;21.13;;;-0.50;99.90;;;;;;5030175;28;20030;-78
2022/12/14 12:58:39;;;;;;;33.90;23.17;;;-0.50;99.90;;;;;;5008652;28;20060;-80
2022/12/14 13:01:16;;;;;;;40.72;24.02;;;-0.40;99.90;;;;;;5017154;28;20034;-78
2022/12/14 13:03:44;;;;;;;33.15;23.25;;;-0.30;99.90;;;;;;5010757;28;20127;-78
2022/12/14 13:06:39;;;;;;;28.25;24.27;;;-0.30;99.90;;;;;;5003667;28;20031;-79
2022/12/14 13:09:25;;;;;;;24.75;21.15;;;-0.30;99.90;;;;;;5010845;28;20033;-79
2022/12/14 13:11:51;;;;;;;26.08;21.55;;;-0.30;99.90;;;;;;5030205;28;20165;-80
2022/12/14 13:14:28;;;;;;;28.80;22.90;;;-0.40;99.90;;;;;;5013781;28;20153;-79
2022/12/14 13:16:55;;;;;;;41.83;23.77;;;-0.30;99.90;;;;;;5015801;28;20046;-78
2022/12/14 13:19:23;;;;;;;27.25;23.63;;;-0.30;99.90;;;;;;5015131;28;20025;-78
2022/12/14 13:21:51;;;;;;;31.17;24.20;;;-0.20;99.90;;;;;;5010886;28;20029;-78
2022/12/14 13:24:19;;;;;;;27.88;24.92;;;-0.10;99.90;;;;;;4995504;28;20604;-80
2022/12/14 13:27:04;;;;;;;37.80;27.83;;;-0.10;99.90;;;;;;5012081;28;20029;-79
2022/12/14 13:29:57;;;;;;;34.50;27.02;;;0.00;99.90;;;;;;5013040;28;20045;-80
2022/12/14 13:32:47;;;;;;;28.40;24.83;;;0.10;99.90;;;;;;5029575;28;20052;-80
2022/12/14 13:35:25;;;;;;;34.00;25.07;;;0.20;99.90;;;;;;5029985;28;20025;-79
2022/12/14 13:38:18;;;;;;;32.15;25.48;;;0.10;99.90;;;;;;5011799;28;20112;-79
2022/12/14 13:41:06;;;;;;;30.05;26.88;;;0.10;99.90;;;;;;5014974;28;20060;-79
2022/12/14 13:43:59;;;;;;;26.90;24.05;;;0.20;99.90;;;;;;5021981;28;20557;-79
2022/12/14 13:46:28;;;;;;;29.13;25.63;;;0.10;99.90;;;;;;5017495;28;20403;-79
2022/12/14 13:48:58;;;;;;;30.88;27.40;;;0.20;99.90;;;;;;5014119;28;20387;-78
2022/12/14 13:51:38;;;;;;;29.63;25.70;;;0.20;99.90;;;;;;5027758;28;20395;-78
2022/12/14 13:54:17;;;;;;;33.30;27.98;;;0.20;99.90;;;;;;5026804;28;20038;-78
2022/12/14 13:56:43;;;;;;;32.13;26.00;;;0.20;99.90;;;;;;5014017;28;20052;-77
2022/12/14 13:59:40;;;;;;;30.50;27.20;;;0.20;99.90;;;;;;5013043;28;20466;-75
2022/12/14 14:02:26;;;;;;;33.58;26.65;;;0.30;99.90;;;;;;5008284;28;20030;-74
2022/12/14 14:05:15;;;;;;;37.25;30.17;;;0.30;99.90;;;;;;5018994;28;20033;-74
2022/12/14 14:07:59;;;;;;;35.83;28.40;;;0.40;99.90;;;;;;5029953;28;20168;-74
2022/12/14 14:10:28;;;;;;;33.58;27.23;;;0.50;99.90;;;;;;5020332;28;20441;-74
2022/12/14 14:12:54;;;;;;;38.30;35.03;;;0.60;99.90;;;;;;5015529;28;20018;-74
2022/12/14 14:15:35;;;;;;;32.30;29.02;;;0.50;99.90;;;;;;5026196;28;20888;-72
2022/12/14 14:18:24;;;;;;;39.72;30.67;;;0.50;99.90;;;;;;5011727;28;20052;-74
2022/12/14 14:21:12;;;;;;;63.15;58.38;;;0.60;99.90;;;;;;5022214;28;21042;-74
2022/12/14 14:23:55;;;;;;;32.63;29.70;;;0.60;99.90;;;;;;5015194;28;20034;-74
2022/12/14 14:26:34;;;;;;;30.50;26.80;;;0.70;99.90;;;;;;5010547;28;20048;-72
2022/12/14 14:29:28;;;;;;;28.88;25.88;;;0.70;99.90;;;;;;5026779;28;20141;-74
2022/12/14 14:32:03;;;;;;;26.75;24.02;;;0.80;99.90;;;;;;5019502;28;20080;-72
2022/12/14 14:34:40;;;;;;;26.67;24.00;;;0.80;99.90;;;;;;5010095;28;20029;-73
2022/12/14 14:37:26;;;;;;;28.17;24.05;;;0.80;99.90;;;;;;5003602;28;20023;-72
2022/12/14 14:40:26;;;;;;;23.92;21.20;;;0.70;99.90;;;;;;5010064;28;20026;-73
2022/12/14 14:43:18;;;;;;;27.52;24.40;;;0.60;99.90;;;;;;5009013;28;20037;-73
2022/12/14 14:45:51;;;;;;;31.55;28.35;;;0.70;99.90;;;;;;5020251;28;20060;-71
2022/12/14 14:48:32;;;;;;;24.48;21.80;;;0.60;99.90;;;;;;5013145;28;20376;-69
2022/12/14 14:51:24;;;;;;;26.77;23.13;;;0.60;99.90;;;;;;5036371;28;20789;-71
2022/12/14 14:54:18;;;;;;;25.15;22.73;;;0.60;99.90;;;;;;5013319;28;20389;-70
2022/12/14 14:56:46;;;;;;;22.83;20.50;;;0.60;99.90;;;;;;5018300;28;20111;-71
2022/12/14 14:59:21;;;;;;;28.08;25.27;;;0.60;99.90;;;;;;5005692;28;20026;-70
2022/12/14 15:01:59;;;;;;;29.77;27.08;;;0.60;99.90;;;;;;5032313;28;20054;-69
2022/12/14 15:04:40;;;;;;;26.15;23.95;;;0.60;99.90;;;;;;5017679;28;20059;-70
2022/12/14 15:07:07;;;;;;;26.20;23.65;;;0.60;99.90;;;;;;5017044;28;20432;-70
2022/12/14 15:09:43;;;;;;;27.35;24.83;;;0.60;99.90;;;;;;5013436;28;20030;-70
2022/12/14 15:12:32;;;;;;;26.33;22.25;;;0.60;99.90;;;;;;5005432;28;20657;-70
2022/12/14 15:15:19;;;;;;;25.63;23.20;;;0.60;99.90;;;;;;5027822;28;20166;-70
2022/12/14 15:17:45;;;;;;;27.67;23.92;;;0.60;99.90;;;;;;5024151;28;20046;-71
2022/12/14 15:20:27;;;;;;;28.95;26.05;;;0.60;99.90;;;;;;5004401;28;20043;-70
2022/12/14 15:22:55;;;;;;;28.20;25.65;;;0.60;99.90;;;;;;5032017;28;20128;-70
2022/12/14 15:25:26;;;;;;;30.45;24.92;;;0.60;99.90;;;;;;5021266;28;20085;-70
2022/12/14 15:27:53;;;;;;;28.05;25.58;;;0.60;99.90;;;;;;5006120;28;20030;-70
2022/12/14 15:30:27;;;;;;;29.45;26.70;;;0.60;99.90;;;;;;5017264;28;20117;-71
2022/12/14 15:33:06;;;;;;;26.92;24.48;;;0.60;99.90;;;;;;5017978;28;20032;-70
2022/12/14 15:35:35;;;;;;;26.48;24.17;;;0.60;99.90;;;;;;5011644;28;20033;-70
2022/12/14 15:38:03;;;;;;;27.10;24.73;;;0.60;99.90;;;;;;5010014;28;20399;-70
2022/12/14 15:40:30;;;;;;;33.20;29.98;;;0.60;99.90;;;;;;5017599;28;20052;-68
2022/12/14 15:42:59;;;;;;;27.58;24.75;;;0.60;99.90;;;;;;5013361;28;20034;-71
2022/12/14 15:45:29;;;;;;;31.75;26.20;;;0.60;99.90;;;;;;5010970;28;20040;-70
2022/12/14 15:47:54;;;;;;;36.97;30.25;;;0.60;99.90;;;;;;5012431;28;20026;-69
2022/12/14 15:50:31;;;;;;;34.17;26.48;;;0.60;99.90;;;;;;5012468;28;20044;-70
2022/12/14 15:53:38;;;;;;;37.42;33.45;;;0.60;99.90;;;;;;5016572;28;20376;-68
2022/12/14 15:56:16;;;;;;;43.35;32.08;;;0.60;99.90;;;;;;4972123;28;20082;-70
2022/12/14 15:58:43;;;;;;;71.68;30.75;;;0.60;99.90;;;;;;4976572;28;20038;-70
2022/12/14 16:01:29;;;;;;;36.28;32.67;;;0.60;99.90;;;;;;4988460;28;20034;-70
2022/12/14 16:03:59;;;;;;;75.97;54.05;;;0.60;99.90;;;;;;5007714;28;20041;-70
2022/12/14 16:06:28;;;;;;;45.60;41.15;;;0.60;99.90;;;;;;5004366;28;20060;-70
2022/12/14 16:09:17;;;;;;;39.22;35.08;;;0.60;99.90;;;;;;5007873;28;20465;-71
2022/12/14 16:11:49;;;;;;;40.28;30.40;;;0.60;99.90;;;;;;5009283;28;20047;-69
2022/12/14 16:14:18;;;;;;;41.50;31.35;;;0.70;99.90;;;;;;5010419;28;20018;-70
2022/12/14 16:16:44;;;;;;;52.17;46.83;;;0.80;99.90;;;;;;5017138;28;20412;-70
2022/12/14 16:19:17;;;;;;;64.38;55.08;;;0.80;99.90;;;;;;5014865;28;20057;-70
2022/12/14 16:21:47;;;;;;;37.47;30.27;;;0.70;99.90;;;;;;5017876;28;20414;-70
2022/12/14 16:24:24;;;;;;;34.70;31.40;;;0.70;99.90;;;;;;5010743;28;20027;-70
2022/12/14 16:26:58;;;;;;;41.63;31.95;;;0.70;99.90;;;;;;5014202;28;20618;-70
2022/12/14 16:29:27;;;;;;;36.85;33.00;;;0.70;99.90;;;;;;5016025;28;20037;-70
2022/12/14 16:32:14;;;;;;;56.40;50.75;;;0.70;99.90;;;;;;5029280;28;20034;-70
2022/12/14 16:34:58;;;;;;;39.90;33.85;;;0.70;99.90;;;;;;5028454;28;20157;-69
2022/12/14 16:37:24;;;;;;;37.03;27.92;;;0.70;99.90;;;;;;5015343;28;20022;-70
2022/12/14 16:39:51;;;;;;;45.15;35.63;;;0.70;99.90;;;;;;5011856;28;20034;-70
2022/12/14 16:42:20;;;;;;;40.33;34.20;;;0.70;99.90;;;;;;5016429;28;20494;-70
2022/12/14 16:44:46;;;;;;;37.97;31.88;;;0.70;99.90;;;;;;5018339;28;20053;-70
2022/12/14 16:47:11;;;;;;;38.50;30.27;;;0.70;99.90;;;;;;5017505;28;20037;-70
2022/12/14 16:50:00;;;;;;;30.83;27.58;;;0.70;99.90;;;;;;5011579;28;20503;-70
2022/12/14 16:52:35;;;;;;;16.67;15.05;;;0.70;99.90;;;;;;5022857;28;20029;-69
2022/12/14 16:55:13;;;;;;;33.20;29.88;;;0.70;99.90;;;;;;5012187;28;20040;-70
2022/12/14 16:57:47;;;;;;;33.13;30.13;;;0.70;99.90;;;;;;5014232;28;20128;-70
2022/12/14 17:00:30;;;;;;;33.90;28.85;;;0.70;99.90;;;;;;5012680;28;20135;-70
2022/12/14 17:03:08;;;;;;;30.15;27.02;;;0.70;99.90;;;;;;5034697;28;20052;-70
2022/12/14 17:05:38;;;;;;;30.67;27.38;;;0.70;99.90;;;;;;5013481;28;20526;-70
2022/12/14 17:08:05;;;;;;;46.83;31.50;;;0.70;99.90;;;;;;5013603;28;20028;-70
2022/12/14 17:10:32;;;;;;;40.58;31.95;;;0.80;99.90;;;;;;5016294;28;20096;-70
2022/12/14 17:12:59;;;;;;;31.10;27.98;;;0.80;99.90;;;;;;5012630;28;20129;-70
2022/12/14 17:15:28;;;;;;;111.55;63.40;;;0.80;99.90;;;;;;5015730;28;20729;-70
2022/12/14 17:17:56;;;;;;;39.67;30.42;;;0.80;99.90;;;;;;5008596;28;20057;-70
2022/12/14 17:20:28;;;;;;;37.15;33.55;;;0.80;99.90;;;;;;5010798;28;20038;-70
2022/12/14 17:22:57;;;;;;;40.70;35.42;;;0.80;99.90;;;;;;5011253;28;20029;-70
2022/12/14 17:25:24;;;;;;;88.65;67.50;;;0.80;99.90;;;;;;5012070;28;20048;-70
2022/12/14 17:27:50;;;;;;;80.72;65.70;;;0.70;99.90;;;;;;5009219;28;20469;-70
2022/12/14 17:30:18;;;;;;;34.00;30.63;;;0.70;99.90;;;;;;5010619;28;20034;-71
2022/12/14 17:32:44;;;;;;;34.17;30.85;;;0.70;99.90;;;;;;5017010;28;20026;-70
2022/12/14 17:35:19;;;;;;;33.05;29.52;;;0.70;99.90;;;;;;5012674;28;20044;-70
2022/12/14 17:37:45;;;;;;;30.85;28.20;;;0.70;99.90;;;;;;5010664;28;20034;-70
2022/12/14 17:40:11;;;;;;;37.72;34.03;;;0.80;99.90;;;;;;5010403;28;20064;-70
2022/12/14 17:42:39;;;;;;;34.85;31.08;;;0.80;99.90;;;;;;5014422;28;20480;-70
2022/12/14 17:45:16;;;;;;;33.40;30.00;;;0.80;99.90;;;;;;5018963;28;20741;-70
2022/12/14 17:47:41;;;;;;;33.17;29.58;;;0.80;99.90;;;;;;5014163;28;20594;-70
2022/12/14 17:50:11;;;;;;;31.58;28.27;;;0.80;99.90;;;;;;5018646;28;20177;-71
2022/12/14 17:52:37;;;;;;;32.60;29.17;;;0.90;99.90;;;;;;5013719;28;20085;-70
2022/12/14 17:55:03;;;;;;;35.53;32.25;;;0.80;99.90;;;;;;5032921;28;20034;-70
2022/12/14 17:57:29;;;;;;;37.45;33.63;;;0.90;99.90;;;;;;5021174;28;20030;-71
2022/12/14 18:02:40;;;;;;;29.40;26.73;;;0.90;99.90;;;;;;5018273;28;20086;-71
2022/12/14 18:05:12;;;;;;;29.58;27.15;;;0.90;99.90;;;;;;4999379;28;20124;-70
2022/12/14 18:07:38;;;;;;;35.00;31.50;;;0.90;99.90;;;;;;5016991;28;20045;-71
2022/12/14 18:10:04;;;;;;;31.30;28.33;;;0.90;99.90;;;;;;5015092;28;20061;-72
2022/12/14 18:12:30;;;;;;;33.60;30.38;;;0.90;99.90;;;;;;5036231;28;20033;-71
2022/12/14 18:14:55;;;;;;;34.35;28.65;;;0.90;99.90;;;;;;5013391;28;20032;-69
2022/12/14 18:17:21;;;;;;;50.33;45.50;;;0.80;99.90;;;;;;5016786;28;20133;-69
2022/12/14 18:19:47;;;;;;;44.20;34.00;;;0.80;99.90;;;;;;5019112;28;20033;-70
2022/12/14 18:22:12;;;;;;;71.03;63.38;;;0.80;99.90;;;;;;5031250;28;20034;-70
2022/12/14 18:24:38;;;;;;;113.93;97.20;;;0.80;99.90;;;;;;5013379;28;20495;-70
2022/12/14 18:27:04;;;;;;;61.92;55.35;;;0.80;99.90;;;;;;5014948;28;20038;-70
2022/12/14 18:29:29;;;;;;;45.30;35.20;;;0.90;99.90;;;;;;5019869;28;20087;-73
2022/12/14 18:31:55;;;;;;;34.40;31.15;;;0.90;99.90;;;;;;5030733;28;20178;-69
2022/12/14 18:34:21;;;;;;;36.20;32.72;;;0.90;99.90;;;;;;5017895;28;20037;-70
2022/12/14 18:36:47;;;;;;;33.25;30.15;;;0.90;99.90;;;;;;5006405;28;20151;-70
2022/12/14 18:39:13;;;;;;;34.45;28.38;;;0.90;99.90;;;;;;5015815;28;20061;-70
2022/12/14 18:41:38;;;;;;;43.75;39.45;;;0.90;99.90;;;;;;4999354;28;20617;-69
2022/12/14 18:44:04;;;;;;;48.88;38.75;;;0.90;99.90;;;;;;5014391;28;20129;-70
2022/12/14 18:46:30;;;;;;;33.33;30.00;;;0.80;99.90;;;;;;5019358;28;20033;-70
2022/12/14 18:48:55;;;;;;;41.75;33.88;;;0.90;99.90;;;;;;5035742;28;20033;-70
2022/12/14 18:51:22;;;;;;;31.35;25.15;;;0.90;99.90;;;;;;5016760;28;20041;-70
2022/12/14 18:53:52;;;;;;;33.13;26.27;;;0.90;99.90;;;;;;5016102;28;20030;-69
2022/12/14 18:56:20;;;;;;;43.10;32.58;;;0.90;99.90;;;;;;5020532;28;20029;-70
2022/12/14 18:58:46;;;;;;;31.80;27.63;;;0.80;99.90;;;;;;5019509;28;20114;-69
2022/12/14 19:01:14;;;;;;;37.97;27.55;;;0.90;99.90;;;;;;5012468;28;20084;-69
2022/12/14 19:03:41;;;;;;;31.85;28.52;;;0.90;99.90;;;;;;5032096;28;20037;-69
2022/12/14 19:06:11;;;;;;;29.88;26.70;;;0.90;99.90;;;;;;5015868;28;20026;-69
2022/12/14 19:08:38;;;;;;;36.33;29.58;;;0.90;99.90;;;;;;5012408;28;20680;-69
2022/12/14 19:11:28;;;;;;;35.25;28.58;;;0.90;99.90;;;;;;5018714;28;20030;-69
2022/12/14 19:13:57;;;;;;;34.10;28.48;;;0.90;99.90;;;;;;5009513;28;20127;-74
2022/12/14 19:16:23;;;;;;;31.73;25.23;;;1.00;99.90;;;;;;5015653;28;20031;-74
2022/12/14 19:18:50;;;;;;;29.30;26.27;;;1.00;99.90;;;;;;4999711;28;20033;-74
2022/12/14 19:21:16;;;;;;;29.98;26.95;;;1.00;99.90;;;;;;5015493;28;20033;-73
2022/12/14 19:23:42;;;;;;;29.20;26.17;;;1.00;99.90;;;;;;4993684;28;20042;-72
2022/12/14 19:26:07;;;;;;;27.63;24.85;;;1.00;99.90;;;;;;5015713;28;20046;-72
2022/12/14 19:28:33;;;;;;;28.98;26.10;;;0.90;99.90;;;;;;5014744;28;20480;-72
2022/12/14 19:31:00;;;;;;;30.02;27.05;;;0.90;99.90;;;;;;5015410;28;20037;-72
2022/12/14 19:33:26;;;;;;;31.20;27.77;;;1.00;99.90;;;;;;5019192;28;20025;-72
2022/12/14 19:35:52;;;;;;;35.13;31.27;;;1.10;99.90;;;;;;5028259;28;20032;-72
2022/12/14 19:38:18;;;;;;;47.30;29.77;;;1.10;99.90;;;;;;5016251;28;20017;-72
2022/12/14 19:40:55;;;;;;;72.65;40.75;;;1.00;99.90;;;;;;5020200;28;20094;-73
2022/12/14 19:43:21;;;;;;;57.83;37.50;;;1.00;99.90;;;;;;5013401;28;20057;-72
2022/12/14 19:45:47;;;;;;;53.88;32.05;;;1.20;99.90;;;;;;5023704;28;20025;-72
2022/12/14 19:48:12;;;;;;;34.75;28.20;;;1.20;99.90;;;;;;5014918;28;20043;-73
2022/12/14 19:50:38;;;;;;;32.80;26.70;;;1.20;99.90;;;;;;5030279;28;20775;-68
2022/12/14 19:53:04;;;;;;;28.85;25.75;;;1.20;99.90;;;;;;5010417;28;20029;-68
2022/12/14 19:55:29;;;;;;;34.97;28.83;;;1.20;99.90;;;;;;5026965;28;20037;-68
2022/12/14 19:57:55;;;;;;;158.43;109.43;;;1.10;99.90;;;;;;5011720;28;20045;-68
2022/12/14 20:00:20;;;;;;;35.88;29.08;;;1.10;99.90;;;;;;5028227;28;20050;-68
2022/12/14 20:02:46;;;;;;;33.50;28.58;;;1.20;99.90;;;;;;5029571;28;20109;-68
2022/12/14 20:05:12;;;;;;;36.03;28.33;;;1.10;99.90;;;;;;5014200;28;20175;-71
2022/12/14 20:07:39;;;;;;;33.28;27.05;;;1.20;99.90;;;;;;5011501;28;20029;-71
2022/12/14 20:10:05;;;;;;;36.60;26.50;;;1.20;99.90;;;;;;5001531;28;20372;-71
2022/12/14 20:12:33;;;;;;;29.13;26.23;;;1.20;99.90;;;;;;5013055;28;20475;-71
2022/12/14 20:14:58;;;;;;;32.97;29.55;;;1.30;99.90;;;;;;5007834;28;20022;-70
2022/12/14 20:17:24;;;;;;;33.97;27.60;;;1.30;99.90;;;;;;4977041;28;20423;-71
2022/12/14 20:19:50;;;;;;;40.42;27.33;;;1.20;99.90;;;;;;5014224;28;20095;-71
2022/12/14 20:22:15;;;;;;;29.75;26.67;;;1.10;99.90;;;;;;5014161;28;20108;-71
2022/12/14 20:24:45;;;;;;;28.60;25.52;;;1.10;99.90;;;;;;5027723;28;20507;-71
2022/12/14 20:27:12;;;;;;;28.33;25.43;;;1.20;99.90;;;;;;5017960;28;20029;-71
2022/12/14 20:29:38;;;;;;;28.95;26.00;;;1.20;99.90;;;;;;5013896;28;20026;-71
2022/12/14 20:32:04;;;;;;;34.25;24.20;;;1.20;99.90;;;;;;5017846;28;20396;-71
2022/12/14 20:34:30;;;;;;;30.13;26.75;;;1.10;99.90;;;;;;5014592;28;20506;-71
2022/12/14 20:36:55;;;;;;;32.53;25.60;;;1.10;99.90;;;;;;5020300;28;20037;-71
2022/12/14 20:39:21;;;;;;;27.63;24.73;;;1.10;99.90;;;;;;5015684;28;20413;-71
2022/12/14 20:41:47;;;;;;;29.58;26.50;;;1.10;99.90;;;;;;5027461;28;20416;-71
2022/12/14 20:44:14;;;;;;;27.75;23.83;;;1.20;99.90;;;;;;5013293;28;20022;-71
2022/12/14 20:46:43;;;;;;;26.13;23.80;;;1.00;99.90;;;;;;5014320;28;20185;-72
2022/12/14 20:49:15;;;;;;;26.38;23.55;;;1.10;99.90;;;;;;5015276;28;20525;-71
2022/12/14 20:51:41;;;;;;;29.33;24.92;;;1.00;99.90;;;;;;5010851;28;20042;-72
2022/12/14 20:54:10;;;;;;;27.73;24.88;;;1.00;99.90;;;;;;5022560;28;20051;-71
2022/12/14 20:56:36;;;;;;;33.75;25.63;;;1.10;99.90;;;;;;5010041;28;20664;-71
2022/12/14 20:59:02;;;;;;;37.63;29.98;;;1.10;99.90;;;;;;5007864;28;20127;-72
2022/12/14 21:01:28;;;;;;;29.88;26.88;;;1.30;99.90;;;;;;5015378;28;20041;-71
2022/12/14 21:03:56;;;;;;;33.53;25.90;;;1.30;99.90;;;;;;5011102;28;20148;-72
2022/12/14 21:06:22;;;;;;;29.10;25.65;;;1.30;99.90;;;;;;5018960;28;20033;-72
2022/12/14 21:09:03;;;;;;;29.38;25.20;;;1.30;99.90;;;;;;5014377;28;20068;-72
2022/12/14 21:14:14;;;;;;;23.15;20.73;;;1.20;99.90;;;;;;5007132;28;20037;-72
2022/12/14 21:16:41;;;;;;;27.05;24.08;;;1.10;99.90;;;;;;5013560;28;20108;-72
2022/12/14 21:19:07;;;;;;;26.33;23.75;;;1.00;99.90;;;;;;5016810;28;20026;-69
2022/12/14 21:21:33;;;;;;;26.83;24.05;;;1.10;99.90;;;;;;5015728;28;20037;-69
2022/12/14 21:23:59;;;;;;;26.30;23.65;;;1.20;99.90;;;;;;5010383;28;20080;-69